Time;durP1;ratioP1;P1;durP2;ratioP2;P2;SDS_P1;SDS_P2;PMS_P1;PMS_P2;Temp;Humidity;BMP_temperature;BMP_pressure;BME280_temperature;BME280_humidity;BME280_pressure;Samples;Min_cycle;Max_cycle;Signal;HPM_P1;HPM_P2
2023/06/15 00:00:06;;;;;;;6.97;5.73;;;;;;;19.71;60.20;98022.88;4189634;28;20625;-84
2023/06/15 00:02:14;;;;;;;5.93;5.30;;;;;;;19.72;60.29;98018.41;4198959;28;20659;-84
2023/06/15 00:04:17;;;;;;;6.20;5.60;;;;;;;19.68;60.08;98023.19;4207653;28;20979;-84
2023/06/15 00:06:20;;;;;;;7.53;5.50;;;;;;;19.67;61.39;98023.34;4192651;28;20653;-84
2023/06/15 00:08:24;;;;;;;6.30;5.70;;;;;;;19.67;61.15;98018.88;4199484;28;20645;-84
2023/06/15 00:10:27;;;;;;;6.33;5.60;;;;;;;19.66;60.47;98026.97;4202020;28;20633;-84
2023/06/15 00:12:30;;;;;;;6.30;5.70;;;;;;;19.62;61.33;98023.00;4195849;28;20628;-84
2023/06/15 00:14:33;;;;;;;6.80;6.10;;;;;;;19.60;60.59;98020.50;4201622;28;21156;-84
2023/06/15 00:16:41;;;;;;;6.30;5.80;;;;;;;19.52;60.87;98028.44;4195791;28;20723;-83
2023/06/15 00:18:47;;;;;;;7.00;6.30;;;;;;;19.48;61.33;98019.19;4181205;28;20639;-83
2023/06/15 00:20:50;;;;;;;7.10;6.40;;;;;;;19.46;61.20;98029.06;4180007;28;21207;-84
2023/06/15 00:22:55;;;;;;;7.07;6.37;;;;;;;19.43;61.62;98029.41;4176412;28;20676;-84
2023/06/15 00:24:58;;;;;;;7.83;5.93;;;;;;;19.46;61.07;98025.63;4187182;28;20682;-84
2023/06/15 00:27:01;;;;;;;7.90;6.00;;;;;;;19.48;62.04;98027.13;4193473;28;20727;-84
2023/06/15 00:29:05;;;;;;;6.17;5.57;;;;;;;19.50;61.84;98030.41;4183806;28;20711;-84
2023/06/15 00:31:08;;;;;;;6.63;5.80;;;;;;;19.52;61.46;98027.63;4202174;28;20636;-84
2023/06/15 00:33:12;;;;;;;6.63;5.73;;;;;;;19.51;61.73;98033.88;4197026;28;20716;-84
2023/06/15 00:35:16;;;;;;;6.93;6.00;;;;;;;19.48;61.29;98032.41;4178193;28;20703;-84
2023/06/15 00:37:19;;;;;;;7.83;6.17;;;;;;;19.48;61.16;98032.41;4190461;28;20638;-84
2023/06/15 00:39:23;;;;;;;7.33;5.83;;;;;;;19.48;61.10;98040.34;4190691;28;20712;-84
2023/06/15 00:41:26;;;;;;;6.20;5.60;;;;;;;19.44;60.94;98031.06;4170440;28;20737;-84
2023/06/15 00:43:29;;;;;;;7.43;6.63;;;;;;;19.45;62.07;98031.88;4175780;28;20628;-84
2023/06/15 00:45:34;;;;;;;6.97;6.27;;;;;;;19.43;61.70;98042.63;4187660;28;22163;-84
2023/06/15 00:47:41;;;;;;;6.50;5.90;;;;;;;19.43;62.10;98037.34;4197097;28;20644;-84
2023/06/15 00:49:46;;;;;;;6.00;5.40;;;;;;;19.43;61.35;98045.28;4190221;28;21179;-84
2023/06/15 00:51:49;;;;;;;6.37;5.77;;;;;;;19.40;61.30;98029.72;4182909;28;20609;-84
2023/06/15 00:53:53;;;;;;;6.40;5.80;;;;;;;19.39;61.80;98038.66;4188682;28;20649;-84
2023/06/15 00:55:56;;;;;;;6.50;5.90;;;;;;;19.38;61.57;98042.28;4203514;28;20623;-84
2023/06/15 00:58:00;;;;;;;6.43;5.83;;;;;;;19.38;62.07;98046.75;4193875;28;20640;-83
2023/06/15 01:00:09;;;;;;;6.67;6.07;;;;;;;19.34;62.25;98042.75;4180028;28;20636;-84
2023/06/15 01:02:14;;;;;;;6.80;6.10;;;;;;;19.35;62.29;98051.53;4181684;28;20658;-84
2023/06/15 01:04:18;;;;;;;6.33;5.73;;;;;;;19.35;61.85;98051.53;4178718;28;20629;-84
2023/06/15 01:06:31;;;;;;;6.47;5.80;;;;;;;19.30;62.22;98053.81;4201062;28;20749;-84
2023/06/15 01:08:36;;;;;;;7.13;6.30;;;;;;;19.24;62.22;98046.53;4191892;28;20670;-84
2023/06/15 01:10:39;;;;;;;7.00;6.27;;;;;;;19.20;61.80;98048.66;4179171;28;21058;-84
2023/06/15 01:12:44;;;;;;;7.23;6.53;;;;;;;19.17;62.13;98048.13;4193056;28;20672;-84
2023/06/15 01:14:47;;;;;;;7.07;6.03;;;;;;;19.16;62.46;98044.66;4195922;28;20636;-84
2023/06/15 01:16:57;;;;;;;7.50;6.73;;;;;;;19.16;62.52;98049.13;4191627;28;20678;-83
2023/06/15 01:19:03;;;;;;;7.00;6.40;;;;;;;19.17;62.21;98050.78;4198835;28;21012;-84
2023/06/15 01:21:07;;;;;;;8.37;5.97;;;;;;;19.19;62.40;98051.47;4207409;28;20674;-84
2023/06/15 01:23:27;;;;;;;6.50;5.90;;;;;;;19.14;62.07;98053.72;4195704;28;20718;-84
2023/06/15 01:25:33;;;;;;;6.67;5.80;;;;;;;19.11;62.65;98049.63;4181958;28;20730;-83
2023/06/15 01:27:41;;;;;;;6.50;5.83;;;;;;;19.12;62.86;98051.25;4186327;28;21085;-83
2023/06/15 01:29:44;;;;;;;6.93;6.33;;;;;;;19.08;62.45;98047.28;4194396;28;21128;-84
2023/06/15 01:31:49;;;;;;;6.77;6.10;;;;;;;19.10;62.85;98049.78;4172624;28;20634;-83
2023/06/15 01:33:53;;;;;;;6.13;5.53;;;;;;;19.08;62.19;98051.75;4191445;28;20656;-84
2023/06/15 01:35:56;;;;;;;6.90;6.20;;;;;;;19.11;62.70;98048.75;4178719;28;20693;-83
2023/06/15 01:37:59;;;;;;;8.60;6.27;;;;;;;19.12;62.18;98053.91;4175915;28;20903;-83
2023/06/15 01:40:04;;;;;;;6.93;6.10;;;;;;;19.13;62.62;98052.09;4186283;28;20616;-83
2023/06/15 01:42:08;;;;;;;6.87;6.20;;;;;;;19.17;63.05;98054.28;4188274;28;21216;-83
2023/06/15 01:44:13;;;;;;;6.57;5.87;;;;;;;19.20;62.89;98064.53;4194544;28;20639;-83
2023/06/15 01:46:17;;;;;;;6.23;5.63;;;;;;;19.20;63.21;98059.25;4192614;28;20626;-83
2023/06/15 01:48:21;;;;;;;6.70;6.00;;;;;;;19.21;63.02;98052.13;4195608;28;20648;-83
2023/06/15 01:50:25;;;;;;;6.93;6.23;;;;;;;19.19;64.05;98054.13;4178075;28;20624;-84
2023/06/15 01:52:28;;;;;;;5.80;5.30;;;;;;;19.08;63.34;98041.19;4188943;28;20673;-83
2023/06/15 01:54:31;;;;;;;6.80;6.20;;;;;;;18.98;63.52;98045.72;4186788;28;21200;-84
2023/06/15 01:56:35;;;;;;;6.47;5.83;;;;;;;18.99;64.02;98042.09;4193148;28;20643;-84
2023/06/15 01:58:38;;;;;;;6.80;6.13;;;;;;;18.99;63.38;98047.38;4191108;28;21064;-83
2023/06/15 02:00:43;;;;;;;6.50;5.90;;;;;;;19.01;63.05;98048.03;4180046;28;20714;-83
2023/06/15 02:02:46;;;;;;;6.77;6.07;;;;;;;19.01;63.04;98048.03;4191242;28;21250;-84
2023/06/15 02:04:50;;;;;;;6.97;5.43;;;;;;;19.04;63.58;98050.41;4195370;28;20633;-86
2023/06/15 02:06:53;;;;;;;6.37;5.77;;;;;;;19.06;63.11;98049.28;4189986;28;21097;-86
2023/06/15 02:08:57;;;;;;;6.67;6.00;;;;;;;19.05;62.80;98049.44;4173981;28;20681;-85
2023/06/15 02:11:00;;;;;;;6.93;6.00;;;;;;;19.04;62.79;98038.00;4194912;28;20635;-86
2023/06/15 02:13:03;;;;;;;8.80;6.13;;;;;;;19.06;62.83;98046.63;4190848;28;20642;-86
2023/06/15 02:15:08;;;;;;;6.70;5.70;;;;;;;19.08;62.84;98051.75;4191792;28;20666;-86
2023/06/15 02:17:12;;;;;;;6.73;6.00;;;;;;;19.05;63.63;98050.25;4200206;28;20637;-86
2023/06/15 02:19:21;;;;;;;5.83;5.33;;;;;;;19.06;63.21;98051.06;4170274;28;20669;-85
2023/06/15 02:21:24;;;;;;;6.67;6.03;;;;;;;19.06;62.64;98056.34;4173046;28;21734;-86
2023/06/15 02:23:27;;;;;;;7.40;6.70;;;;;;;19.02;63.61;98047.09;4179094;28;20723;-85
2023/06/15 02:25:31;;;;;;;7.23;6.53;;;;;;;19.00;63.80;98041.94;4199413;28;21101;-86
2023/06/15 02:27:34;;;;;;;6.03;5.50;;;;;;;18.98;63.53;98048.34;4200372;28;20635;-86
2023/06/15 02:29:38;;;;;;;6.67;6.03;;;;;;;18.95;63.33;98048.66;4170645;28;21280;-86
2023/06/15 02:31:41;;;;;;;6.37;5.70;;;;;;;18.94;64.23;98047.84;4189163;28;20641;-86
2023/06/15 02:33:45;;;;;;;5.93;5.43;;;;;;;18.92;63.26;98044.50;4172698;28;20710;-86
2023/06/15 02:35:49;;;;;;;6.50;5.87;;;;;;;18.90;63.79;98045.66;4191834;28;20633;-86
2023/06/15 02:37:52;;;;;;;6.73;6.00;;;;;;;18.88;63.61;98044.97;4180112;28;20739;-86
2023/06/15 02:39:55;;;;;;;6.50;5.90;;;;;;;18.86;63.54;98039.03;4192369;28;20631;-86
2023/06/15 02:41:58;;;;;;;7.20;5.57;;;;;;;18.86;64.36;98048.78;4200481;28;20716;-86
2023/06/15 02:44:02;;;;;;;5.90;5.40;;;;;;;18.80;63.87;98042.28;4189178;28;20685;-85
2023/06/15 02:46:06;;;;;;;7.10;6.40;;;;;;;18.78;63.41;98039.00;4178196;28;20632;-86
2023/06/15 02:48:09;;;;;;;6.70;6.10;;;;;;;18.74;63.62;98045.56;4183217;28;20725;-86
2023/06/15 02:50:14;;;;;;;7.70;6.33;;;;;;;18.68;63.47;98040.91;4192212;28;20683;-86
2023/06/15 02:52:24;;;;;;;7.20;5.83;;;;;;;18.67;63.59;98041.06;4178280;28;20649;-86
2023/06/15 02:54:28;;;;;;;6.17;5.43;;;;;;;18.66;64.06;98042.88;4188026;28;20663;-86
2023/06/15 02:56:34;;;;;;;6.83;6.20;;;;;;;18.63;63.78;98042.38;4192350;28;20632;-86
2023/06/15 02:58:38;;;;;;;6.90;6.10;;;;;;;18.60;63.81;98051.44;4196070;28;20730;-85
2023/06/15 03:00:50;;;;;;;6.43;5.83;;;;;;;18.60;63.66;98048.78;4191760;28;20752;-85
2023/06/15 03:03:01;;;;;;;6.63;6.03;;;;;;;18.57;63.33;98049.09;4183012;28;21346;-85
2023/06/15 03:05:11;;;;;;;6.97;6.30;;;;;;;18.55;63.81;98045.78;4187095;28;21275;-86
2023/06/15 03:07:25;;;;;;;6.57;5.97;;;;;;;18.54;64.60;98052.03;4181523;28;20721;-86
2023/06/15 03:09:47;;;;;;;7.17;6.20;;;;;;;18.50;64.03;98058.59;4179679;28;20743;-86
2023/06/15 03:11:51;;;;;;;7.00;6.07;;;;;;;18.47;64.77;98058.91;4196167;28;20638;-85
2023/06/15 03:14:00;;;;;;;7.93;6.33;;;;;;;18.45;65.04;98060.88;4181631;28;21237;-86
2023/06/15 03:16:15;;;;;;;10.13;6.27;;;;;;;18.45;65.56;98062.72;4189873;28;20698;-85
2023/06/15 03:18:21;;;;;;;7.37;6.67;;;;;;;18.39;66.35;98078.31;4192446;28;20632;-86
2023/06/15 03:20:24;;;;;;;9.07;6.80;;;;;;;18.31;66.63;98067.69;4186340;28;21187;-86
2023/06/15 03:22:33;;;;;;;7.07;6.47;;;;;;;18.21;67.11;98067.78;4194072;28;20660;-86
2023/06/15 03:24:39;;;;;;;7.83;7.03;;;;;;;18.10;66.84;98073.28;4205051;28;20983;-86
2023/06/15 03:26:44;;;;;;;6.70;6.10;;;;;;;18.05;67.48;98072.88;4184926;28;20644;-86
2023/06/15 03:28:48;;;;;;;8.03;6.70;;;;;;;18.04;68.19;98086.22;4201776;28;20627;-86
2023/06/15 03:30:53;;;;;;;6.57;5.97;;;;;;;17.98;67.85;98082.41;4204052;28;20658;-86
2023/06/15 03:32:59;;;;;;;7.00;6.30;;;;;;;17.95;68.85;98085.34;4179856;28;21265;-86
2023/06/15 03:35:03;;;;;;;7.47;6.63;;;;;;;17.89;67.64;98086.91;4181477;28;20616;-86
2023/06/15 03:37:07;;;;;;;7.03;6.33;;;;;;;17.81;69.04;98085.00;4182939;28;20649;-86
2023/06/15 03:39:15;;;;;;;7.30;6.60;;;;;;;17.74;69.00;98088.41;4175717;28;20711;-86
2023/06/15 03:41:19;;;;;;;7.50;6.70;;;;;;;17.70;69.55;98085.22;4182654;28;21017;-83
2023/06/15 03:43:22;;;;;;;7.20;6.50;;;;;;;17.68;69.55;98100.41;4179595;28;20639;-83
2023/06/15 03:45:26;;;;;;;7.30;6.60;;;;;;;17.67;69.09;98098.72;4171720;28;20647;-83
2023/06/15 03:47:31;;;;;;;7.17;6.57;;;;;;;17.65;68.50;98094.56;4176410;28;21272;-82
2023/06/15 03:49:35;;;;;;;7.37;6.40;;;;;;;17.62;70.27;98106.25;4192083;28;20670;-83
2023/06/15 03:51:38;;;;;;;7.00;6.30;;;;;;;17.60;70.48;98112.66;4190102;28;22220;-83
2023/06/15 03:53:43;;;;;;;10.07;8.33;;;;;;;17.50;70.00;98117.97;4171818;28;20735;-83
2023/06/15 03:55:47;;;;;;;7.60;6.80;;;;;;;17.48;69.38;98104.13;4179958;28;20794;-83
2023/06/15 03:57:51;;;;;;;7.60;6.90;;;;;;;17.46;69.45;98120.25;4175398;28;20647;-83
2023/06/15 03:59:55;;;;;;;7.70;6.93;;;;;;;17.41;70.64;98118.03;4183422;28;20635;-83
2023/06/15 04:01:59;;;;;;;7.83;7.00;;;;;;;17.42;70.79;98119.69;4192248;28;20634;-83
2023/06/15 04:04:05;;;;;;;8.90;7.97;;;;;;;17.46;71.36;98119.25;4181967;28;20633;-83
2023/06/15 04:06:08;;;;;;;9.87;8.87;;;;;;;17.47;70.30;98122.72;4200000;28;20793;-83
2023/06/15 04:08:12;;;;;;;9.40;7.60;;;;;;;17.48;70.37;98121.72;4188709;28;20681;-85
2023/06/15 04:10:16;;;;;;;8.53;7.63;;;;;;;17.50;70.84;98128.53;4172825;28;20653;-83
2023/06/15 04:12:22;;;;;;;8.73;7.80;;;;;;;17.47;71.37;98120.91;4194322;28;20663;-83
2023/06/15 04:14:25;;;;;;;8.70;7.77;;;;;;;17.45;70.48;98118.56;4187438;28;20969;-83
2023/06/15 04:16:28;;;;;;;9.67;8.60;;;;;;;17.38;70.06;98126.25;4193611;28;20691;-83
2023/06/15 04:18:32;;;;;;;10.60;8.70;;;;;;;17.34;69.60;98131.94;4192127;28;20643;-83
2023/06/15 04:20:36;;;;;;;10.53;8.90;;;;;;;17.31;70.58;98132.25;4180141;28;20646;-83
2023/06/15 04:22:39;;;;;;;10.03;8.63;;;;;;;17.31;70.58;98138.34;4202941;28;20792;-83
2023/06/15 04:24:42;;;;;;;9.37;8.37;;;;;;;17.33;72.69;98141.66;4191909;28;20698;-84
2023/06/15 04:26:47;;;;;;;9.17;8.23;;;;;;;17.35;71.53;98144.13;4192194;28;20673;-83
2023/06/15 04:28:52;;;;;;;9.27;8.10;;;;;;;17.36;72.34;98153.72;4199450;28;20676;-83
2023/06/15 04:31:07;;;;;;;10.30;9.13;;;;;;;17.39;72.58;98150.78;4207367;28;20643;-83
2023/06/15 04:33:13;;;;;;;9.97;8.97;;;;;;;17.38;72.04;98149.97;4185831;28;20640;-84
2023/06/15 04:35:18;;;;;;;10.07;9.07;;;;;;;17.31;71.25;98148.88;4183233;28;21052;-84
2023/06/15 04:37:23;;;;;;;9.73;8.70;;;;;;;17.32;71.81;98157.59;4198687;28;20653;-83
2023/06/15 04:39:27;;;;;;;10.17;9.17;;;;;;;17.35;72.61;98165.22;4193409;28;20981;-83
2023/06/15 04:41:35;;;;;;;14.33;10.00;;;;;;;17.36;75.35;98162.44;4197522;28;20608;-83
2023/06/15 04:43:40;;;;;;;10.50;9.47;;;;;;;17.37;76.95;98164.13;4185966;28;20664;-83
2023/06/15 04:45:46;;;;;;;11.10;10.00;;;;;;;17.40;79.94;98166.47;4173080;28;20621;-83
2023/06/15 04:47:54;;;;;;;10.20;9.10;;;;;;;17.43;79.67;98168.00;4194557;28;20664;-83
2023/06/15 04:49:58;;;;;;;13.50;8.90;;;;;;;17.46;78.93;98173.00;4173985;28;20633;-83
2023/06/15 04:52:02;;;;;;;9.27;8.37;;;;;;;17.49;76.68;98169.06;4182391;28;20672;-83
2023/06/15 04:54:07;;;;;;;10.77;9.70;;;;;;;17.55;77.10;98167.66;4192784;28;20609;-83
2023/06/15 04:56:10;;;;;;;10.00;9.00;;;;;;;17.60;78.65;98174.16;4191611;28;20626;-83
2023/06/15 04:58:15;;;;;;;10.80;9.40;;;;;;;17.64;77.37;98178.16;4187898;28;20678;-83
2023/06/15 05:00:19;;;;;;;9.33;8.43;;;;;;;17.68;76.20;98173.41;4176446;28;20631;-83
2023/06/15 05:02:28;;;;;;;8.83;7.93;;;;;;;17.77;76.81;98178.66;4185331;28;20635;-83
2023/06/15 05:04:31;;;;;;;8.77;7.87;;;;;;;17.85;74.97;98181.41;4187499;28;20638;-83
2023/06/15 05:06:35;;;;;;;7.70;7.00;;;;;;;17.92;73.06;98171.06;4195227;28;20657;-83
2023/06/15 05:08:39;;;;;;;8.80;7.80;;;;;;;18.00;72.36;98180.75;4186570;28;20631;-83
2023/06/15 05:10:42;;;;;;;8.40;7.50;;;;;;;18.06;71.81;98176.69;4188745;28;24561;-83
2023/06/15 05:12:51;;;;;;;7.63;6.93;;;;;;;18.09;70.12;98182.50;4184923;28;20985;-83
2023/06/15 05:14:55;;;;;;;6.70;6.10;;;;;;;18.11;68.16;98187.63;4190938;28;20642;-81
2023/06/15 05:17:03;;;;;;;7.70;7.00;;;;;;;18.11;68.93;98188.44;4177576;28;20646;-81
2023/06/15 05:19:07;;;;;;;7.43;6.50;;;;;;;18.13;68.29;98191.81;4195945;28;22550;-81
2023/06/15 05:21:12;;;;;;;7.33;6.63;;;;;;;18.21;67.71;98196.38;4176065;28;21185;-81
2023/06/15 05:23:18;;;;;;;8.13;6.70;;;;;;;18.29;67.86;98191.16;4194732;28;21048;-81
2023/06/15 05:25:23;;;;;;;7.63;6.30;;;;;;;18.38;67.70;98191.09;4185489;28;20705;-81
2023/06/15 05:27:27;;;;;;;8.47;6.37;;;;;;;18.54;67.96;98200.00;4191714;28;21185;-81
2023/06/15 05:29:31;;;;;;;8.20;7.40;;;;;;;18.62;67.43;98200.06;4178740;28;21195;-81
2023/06/15 05:31:36;;;;;;;7.07;6.37;;;;;;;18.71;68.09;98204.44;4169290;28;20650;-80
2023/06/15 05:33:40;;;;;;;7.63;6.80;;;;;;;18.84;66.66;98211.97;4171160;28;20646;-80
2023/06/15 05:35:47;;;;;;;7.90;7.10;;;;;;;18.97;66.71;98213.25;4177707;28;20635;-79
2023/06/15 05:37:52;;;;;;;7.10;6.40;;;;;;;19.15;65.57;98214.09;4198705;28;20674;-79
2023/06/15 05:39:55;;;;;;;7.67;6.87;;;;;;;19.39;65.92;98218.56;4185746;28;21077;-79
2023/06/15 05:41:59;;;;;;;7.83;6.53;;;;;;;19.61;65.59;98225.16;4199586;28;20711;-78
2023/06/15 05:44:03;;;;;;;8.63;6.57;;;;;;;19.83;65.12;98224.59;4189441;28;20634;-78
2023/06/15 05:46:07;;;;;;;8.33;6.67;;;;;;;20.11;64.91;98227.72;4188695;28;20624;-78
2023/06/15 05:48:10;;;;;;;7.60;6.87;;;;;;;20.32;63.78;98231.59;4187988;28;20722;-78
2023/06/15 05:50:13;;;;;;;6.97;6.30;;;;;;;20.54;62.57;98231.00;4191359;28;20680;-79
2023/06/15 05:52:19;;;;;;;8.50;6.40;;;;;;;20.80;62.27;98248.47;4195003;28;20653;-80
2023/06/15 05:54:23;;;;;;;7.80;6.73;;;;;;;21.05;62.83;98244.00;4185402;28;20632;-79
2023/06/15 05:56:27;;;;;;;7.43;6.60;;;;;;;21.16;61.13;98244.50;4189028;28;21175;-79
2023/06/15 05:58:30;;;;;;;10.23;7.23;;;;;;;21.30;61.47;98247.34;4183327;28;20730;-79
2023/06/15 06:00:33;;;;;;;7.03;6.33;;;;;;;21.51;61.46;98245.00;4203221;28;20627;-80
2023/06/15 06:02:36;;;;;;;7.80;7.00;;;;;;;21.76;61.56;98249.28;4193562;28;20629;-79
2023/06/15 06:04:40;;;;;;;7.70;6.90;;;;;;;22.05;60.70;98253.00;4189083;28;20691;-79
2023/06/15 06:06:43;;;;;;;8.60;6.60;;;;;;;22.24;60.43;98255.28;4201214;28;20669;-79
2023/06/15 06:08:48;;;;;;;6.87;6.27;;;;;;;22.44;60.34;98253.88;4190744;28;20668;-79
2023/06/15 06:10:51;;;;;;;7.00;6.30;;;;;;;22.63;60.09;98248.09;4201897;28;20663;-79
2023/06/15 06:13:13;;;;;;;6.80;6.10;;;;;;;22.89;60.32;98260.06;4207391;28;20812;-79
2023/06/15 06:15:16;;;;;;;8.47;6.50;;;;;;;23.17;59.37;98261.22;4202116;28;20647;-79
2023/06/15 06:17:21;;;;;;;7.40;6.70;;;;;;;23.34;58.17;98260.94;4204428;28;20735;-79
2023/06/15 06:19:44;;;;;;;9.20;6.73;;;;;;;23.46;57.64;98262.97;4216866;28;20642;-80
2023/06/15 06:21:48;;;;;;;7.37;6.67;;;;;;;23.69;57.18;98269.09;4187396;28;20653;-79
2023/06/15 06:23:52;;;;;;;7.43;6.80;;;;;;;23.78;57.01;98260.84;4183439;28;20730;-79
2023/06/15 06:25:56;;;;;;;7.50;6.90;;;;;;;23.87;57.43;98259.75;4202654;28;21214;-79
2023/06/15 06:27:59;;;;;;;6.83;6.00;;;;;;;23.92;56.11;98257.38;4198474;28;20639;-79
2023/06/15 06:30:03;;;;;;;8.03;7.13;;;;;;;23.94;57.09;98258.00;4198718;28;21303;-79
2023/06/15 06:32:07;;;;;;;7.30;6.67;;;;;;;24.11;56.81;98259.47;4209102;28;20645;-80
2023/06/15 06:34:10;;;;;;;7.20;6.40;;;;;;;24.19;57.08;98254.88;4185419;28;20992;-80
2023/06/15 06:36:14;;;;;;;7.90;7.10;;;;;;;24.41;56.42;98255.81;4193605;28;20633;-79
2023/06/15 06:38:17;;;;;;;8.23;7.10;;;;;;;24.47;56.11;98255.88;4194289;28;20626;-79
2023/06/15 06:40:22;;;;;;;9.90;6.67;;;;;;;24.69;57.13;98276.28;4196280;28;20697;-79
2023/06/15 06:42:25;;;;;;;7.50;6.80;;;;;;;24.79;54.39;98263.44;4195899;28;20646;-80
2023/06/15 06:44:31;;;;;;;7.80;7.10;;;;;;;24.91;55.01;98272.63;4192628;28;20635;-80
2023/06/15 06:46:36;;;;;;;7.43;6.70;;;;;;;24.96;54.93;98263.03;4195134;28;20673;-79
2023/06/15 06:48:39;;;;;;;7.03;6.33;;;;;;;25.14;54.73;98272.28;4197623;28;20630;-79
2023/06/15 06:50:42;;;;;;;7.67;6.97;;;;;;;25.35;54.46;98274.09;4183808;28;20700;-79
2023/06/15 06:52:45;;;;;;;7.80;7.10;;;;;;;25.49;55.16;98275.91;4195207;28;20829;-79
2023/06/15 06:54:48;;;;;;;7.20;6.60;;;;;;;25.60;53.52;98269.00;4194315;28;20639;-79
2023/06/15 06:56:53;;;;;;;8.00;7.30;;;;;;;25.71;54.62;98278.38;4198313;28;20647;-79
2023/06/15 06:58:57;;;;;;;7.47;6.77;;;;;;;25.72;53.84;98272.81;4198932;28;20628;-79
2023/06/15 07:01:00;;;;;;;7.50;6.50;;;;;;;25.75;53.56;98267.06;4183057;28;21070;-79
2023/06/15 07:03:03;;;;;;;7.00;6.30;;;;;;;25.76;53.38;98271.41;4185168;28;20630;-79
2023/06/15 07:05:10;;;;;;;8.80;8.00;;;;;;;25.96;52.89;98279.59;4199955;28;20631;-79
2023/06/15 07:07:13;;;;;;;6.97;6.37;;;;;;;26.05;52.96;98278.41;4201878;28;20684;-79
2023/06/15 07:09:16;;;;;;;6.70;6.00;;;;;;;26.24;53.93;98276.66;4195186;28;21236;-79
2023/06/15 07:11:19;;;;;;;7.17;6.47;;;;;;;26.40;52.66;98279.06;4193632;28;20639;-79
2023/06/15 07:13:24;;;;;;;7.57;6.87;;;;;;;26.48;52.12;98273.53;4176379;28;20727;-79
2023/06/15 07:15:27;;;;;;;6.93;6.10;;;;;;;26.57;52.68;98275.03;4196954;28;20648;-80
2023/06/15 07:17:30;;;;;;;6.70;6.10;;;;;;;26.77;52.47;98282.09;4180373;28;21424;-79
2023/06/15 07:19:33;;;;;;;7.90;7.10;;;;;;;26.78;52.27;98277.56;4187684;28;24073;-80
2023/06/15 07:21:37;;;;;;;7.03;6.20;;;;;;;26.82;52.16;98276.13;4202286;28;20675;-80
2023/06/15 07:23:40;;;;;;;7.60;6.80;;;;;;;26.94;53.20;98274.56;4200971;28;20959;-79
2023/06/15 07:25:56;;;;;;;6.83;6.20;;;;;;;27.11;52.63;98274.81;4181843;28;20642;-80
2023/06/15 07:28:02;;;;;;;6.93;6.23;;;;;;;27.22;52.41;98281.44;4203198;28;20670;-79
2023/06/15 07:30:08;;;;;;;6.33;5.60;;;;;;;27.35;52.14;98279.59;4197529;28;21180;-79
2023/06/15 07:32:12;;;;;;;6.67;6.07;;;;;;;27.39;50.83;98280.00;4202955;28;20644;-80
2023/06/15 07:34:15;;;;;;;6.40;5.90;;;;;;;27.37;51.13;98274.84;4194638;28;20630;-79
2023/06/15 07:36:19;;;;;;;7.10;6.50;;;;;;;27.47;52.41;98269.91;4193006;28;20668;-79
2023/06/15 07:38:22;;;;;;;5.80;5.30;;;;;;;27.51;51.55;98271.16;4195554;28;20644;-79
2023/06/15 07:40:25;;;;;;;6.80;6.20;;;;;;;27.64;51.19;98271.19;4184498;28;20666;-79
2023/06/15 07:42:28;;;;;;;6.03;5.53;;;;;;;27.80;51.75;98276.09;4184032;28;21515;-79
2023/06/15 07:44:31;;;;;;;6.27;5.67;;;;;;;27.88;51.26;98273.22;4196548;28;20646;-80
2023/06/15 07:46:36;;;;;;;7.97;5.80;;;;;;;28.08;52.31;98273.00;4195726;28;20644;-79
2023/06/15 07:48:39;;;;;;;6.37;5.77;;;;;;;27.88;50.26;98268.69;4184228;28;20642;-79
2023/06/15 07:50:42;;;;;;;6.80;6.20;;;;;;;27.70;51.12;98265.00;4196063;28;20980;-80
2023/06/15 07:52:46;;;;;;;6.67;5.97;;;;;;;27.52;50.69;98262.91;4194027;28;20779;-79
2023/06/15 07:54:49;;;;;;;6.30;5.70;;;;;;;27.59;50.29;98258.38;4192908;28;20661;-80
2023/06/15 07:56:52;;;;;;;6.40;5.90;;;;;;;27.72;51.33;98262.91;4183611;28;20629;-80
2023/06/15 07:58:56;;;;;;;6.70;5.83;;;;;;;27.88;50.76;98263.31;4191981;28;20620;-80
2023/06/15 08:01:02;;;;;;;7.00;6.40;;;;;;;28.09;51.99;98266.63;4196339;28;20657;-80
2023/06/15 08:03:07;;;;;;;5.80;5.30;;;;;;;28.34;52.18;98267.59;4193967;28;20659;-79
2023/06/15 08:05:10;;;;;;;5.40;4.90;;;;;;;28.46;51.66;98263.19;4186433;28;20631;-81
2023/06/15 08:07:15;;;;;;;5.73;5.20;;;;;;;28.48;49.42;98263.81;4183429;28;20710;-79
2023/06/15 08:09:19;;;;;;;6.20;5.60;;;;;;;28.47;49.96;98262.16;4197989;28;20634;-81
2023/06/15 08:11:23;;;;;;;6.00;5.40;;;;;;;28.58;49.89;98256.13;4193797;28;20667;-80
2023/06/15 08:13:26;;;;;;;6.77;5.50;;;;;;;28.49;49.02;98257.41;4181907;28;22019;-81
2023/06/15 08:15:30;;;;;;;5.60;5.10;;;;;;;28.11;49.09;98251.13;4194393;28;20666;-80
2023/06/15 08:17:35;;;;;;;5.40;4.90;;;;;;;28.16;50.13;98254.00;4194238;28;20632;-80
2023/06/15 08:19:43;;;;;;;7.70;5.10;;;;;;;28.27;50.61;98252.53;4193583;28;20631;-81
2023/06/15 08:21:47;;;;;;;5.57;5.07;;;;;;;28.49;49.82;98258.25;4186599;28;20656;-80
2023/06/15 08:23:55;;;;;;;5.50;5.00;;;;;;;28.38;48.86;98246.50;4190528;28;20638;-80
2023/06/15 08:26:00;;;;;;;6.87;4.80;;;;;;;28.14;49.71;98242.66;4184845;28;20677;-81
2023/06/15 08:28:09;;;;;;;5.80;5.30;;;;;;;27.95;50.13;98247.19;4194175;28;20645;-80
2023/06/15 08:30:14;;;;;;;6.03;5.10;;;;;;;28.13;49.89;98246.38;4177043;28;21094;-81
2023/06/15 08:32:17;;;;;;;5.50;4.60;;;;;;;28.35;49.84;98238.88;4196091;28;20647;-81
2023/06/15 08:34:21;;;;;;;5.70;5.10;;;;;;;28.51;49.42;98248.09;4182901;28;21246;-81
2023/06/15 08:36:25;;;;;;;6.10;4.90;;;;;;;28.51;49.22;98241.91;4182254;28;21045;-81
2023/06/15 08:38:29;;;;;;;5.77;5.17;;;;;;;28.41;48.30;98238.03;4181380;28;20978;-81
2023/06/15 08:40:32;;;;;;;5.57;5.07;;;;;;;28.40;49.29;98233.69;4187071;28;23246;-80
2023/06/15 08:42:35;;;;;;;5.40;4.70;;;;;;;28.40;48.91;98242.59;4177433;28;20624;-80
2023/06/15 08:44:40;;;;;;;5.87;5.30;;;;;;;28.33;48.75;98236.41;4189842;28;20622;-81
2023/06/15 08:46:43;;;;;;;5.70;5.20;;;;;;;28.27;49.62;98237.25;4192859;28;21262;-81
2023/06/15 08:48:48;;;;;;;5.77;5.20;;;;;;;28.29;49.75;98231.66;4194204;28;20635;-81
2023/06/15 08:50:51;;;;;;;6.80;4.90;;;;;;;28.37;49.62;98239.47;4190417;28;20658;-81
2023/06/15 08:52:56;;;;;;;5.33;4.83;;;;;;;28.47;48.80;98232.63;4196629;28;20754;-81
2023/06/15 08:55:01;;;;;;;5.60;4.97;;;;;;;28.64;48.59;98240.00;4199367;28;20682;-81
2023/06/15 08:57:07;;;;;;;4.63;4.23;;;;;;;28.75;48.64;98236.66;4169810;28;20613;-81
2023/06/15 08:59:17;;;;;;;4.77;4.37;;;;;;;28.67;49.52;98244.13;4190745;28;20729;-81
2023/06/15 09:01:22;;;;;;;5.27;4.70;;;;;;;28.77;49.00;98233.78;4190432;28;20664;-81
2023/06/15 09:03:26;;;;;;;5.23;4.73;;;;;;;28.70;49.04;98241.03;4177408;28;20692;-83
2023/06/15 09:05:31;;;;;;;5.10;4.70;;;;;;;28.36;48.80;98225.25;4200765;28;20686;-82
2023/06/15 09:07:35;;;;;;;4.63;4.20;;;;;;;28.41;49.54;98228.09;4169332;28;21011;-84
2023/06/15 09:10:18;;;;;;;5.20;4.70;;;;;;;28.43;48.67;98226.06;4195701;28;20712;-83
2023/06/15 09:12:27;;;;;;;5.10;4.63;;;;;;;28.32;47.76;98223.19;4199283;28;21082;-84
2023/06/15 09:14:40;;;;;;;5.03;4.40;;;;;;;28.50;48.77;98226.84;4180936;28;20729;-83
2023/06/15 09:16:46;;;;;;;5.37;4.87;;;;;;;28.72;47.40;98237.09;4183352;28;20640;-83
2023/06/15 09:18:51;;;;;;;4.73;4.33;;;;;;;28.75;47.57;98242.03;4194422;28;20632;-83
2023/06/15 09:21:08;;;;;;;8.13;4.40;;;;;;;28.90;46.88;98228.31;4190421;28;20647;-82
2023/06/15 09:23:13;;;;;;;5.40;4.83;;;;;;;28.90;47.75;98234.53;4205175;28;21076;-82
2023/06/15 09:25:19;;;;;;;5.17;4.67;;;;;;;28.98;47.35;98231.56;4197553;28;20646;-81
2023/06/15 09:27:22;;;;;;;6.53;4.83;;;;;;;28.96;47.26;98232.81;4189194;28;20708;-82
2023/06/15 09:29:25;;;;;;;5.33;4.83;;;;;;;29.11;48.04;98236.88;4192042;28;20636;-82
2023/06/15 09:31:30;;;;;;;5.03;4.60;;;;;;;29.20;46.39;98236.38;4199521;28;20647;-82
2023/06/15 09:33:33;;;;;;;5.00;4.60;;;;;;;29.17;46.25;98230.63;4201665;28;20623;-82
2023/06/15 09:35:36;;;;;;;11.17;5.13;;;;;;;28.93;46.76;98233.25;4197112;28;20717;-82
2023/06/15 09:37:39;;;;;;;4.20;3.80;;;;;;;28.37;45.13;98221.53;4204054;28;20638;-81
2023/06/15 09:39:45;;;;;;;4.80;4.30;;;;;;;28.13;44.39;98211.50;4197763;28;20641;-82
2023/06/15 09:41:56;;;;;;;5.00;4.37;;;;;;;27.93;44.83;98211.72;4186168;28;20729;-82
2023/06/15 09:44:06;;;;;;;4.30;3.90;;;;;;;28.08;44.92;98222.00;4194557;28;21249;-82
2023/06/15 09:46:12;;;;;;;5.67;4.60;;;;;;;28.08;44.67;98218.47;4172548;28;20639;-81